Latest Weather Observations for Dunalley

IDT60801

Issued at 4:41 pm EDT Wednesday 21 November 2018 (issued every 10 minutes, with the page automatically refreshed every 10 minutes)

About weather observations | Map of weather stations | Latest weather observations for TAS | Other Formats
Station Details ID: 094254 Name: DUNALLEY (STROUD POINT) Lat: -42.90 Lon: 147.79 Height: 12.43 m
Data from the previous 72 hours. | See also: Recent months at Dunalley
Date/Time
EDT
Temp
°C
App
Temp
°C
Dew
Point
°C
Rel
Hum
%
Delta-T
°C
Wind Press
QNH
hPa
Press
MSL
hPa
Rain since
9am
mm
Dir  Spd
km/h
Gust
km/h
Spd
kts
Gust
kts
21/04:30pm 15.2 9.9 11.2 77 2.2 S 30 35 16 19 996.3 996.3 0.8
21/04:00pm 15.3 9.6 11.1 76 2.3 S 32 39 17 21 996.2 996.2 0.8
21/03:30pm 14.8 9.1 11.0 78 2.0 S 32 39 17 21 996.4 996.4 0.8
21/03:00pm 14.8 8.9 11.2 79 1.9 S 33 43 18 23 996.3 996.3 0.8
21/02:30pm 14.3 8.4 11.3 82 1.6 S 33 39 18 21 996.4 996.4 0.8
21/02:00pm 14.2 8.4 11.5 84 1.5 S 33 41 18 22 996.4 996.4 0.8
21/01:30pm 14.6 9.6 12.3 86 1.3 S 30 37 16 20 996.4 996.4 0.8
21/01:00pm 14.6 9.2 12.3 86 1.3 S 32 37 17 20 996.1 996.1 0.8
21/12:30pm 14.6 9.3 12.5 87 1.1 SSW 32 39 17 21 996.2 996.2 0.8
21/12:00pm 14.9 9.8 13.1 89 1.0 SSW 32 37 17 20 995.8 995.8 0.8
21/11:30am 15.3 10.8 13.7 90 0.9 WSW 30 35 16 19 995.5 995.5 0.8
21/11:21am 15.5 13.8 13.7 89 1.0 NE 15 35 8 19 995.5 995.5 0.8
21/11:00am 15.9 16.4 14.1 89 1.0 NE 4 6 2 3 995.5 995.5 0.0
21/10:30am 15.8 15.1 14.3 91 0.9 NE 11 15 6 8 995.3 995.3 0.0
21/10:00am 15.6 14.5 14.3 92 0.7 NE 13 17 7 9 995.3 995.3 0.0
21/09:30am 15.1 15.0 14.0 93 0.6 NE 7 9 4 5 995.7 995.7 0.0
21/09:00am 15.0 13.4 13.9 93 0.6 NNE 15 24 8 13 995.8 995.8 14.4
21/08:30am 14.9 12.3 13.9 94 0.6 NE 20 26 11 14 995.3 995.3 14.4
21/08:00am 15.3 12.1 14.3 94 0.6 ENE 24 28 13 15 994.8 994.8 14.4
21/07:30am 15.3 10.6 14.3 94 0.6 NE 32 39 17 21 996.0 996.0 13.2
21/07:00am 15.9 12.6 14.9 94 0.6 NE 26 33 14 18 995.8 995.8 12.6
21/06:30am 15.9 11.4 14.9 94 0.6 NE 32 37 17 20 995.5 995.5 12.0
21/06:00am 15.5 12.1 14.7 95 0.5 NE 26 30 14 16 995.9 995.9 11.6
21/05:30am 15.6 14.2 14.6 94 0.6 NE 15 19 8 10 996.5 996.5 11.2
21/05:00am 15.7 14.4 14.7 94 0.6 NE 15 17 8 9 997.2 997.2 9.4
21/04:30am 15.7 14.7 14.7 94 0.6 NE 13 15 7 8 997.5 997.5 8.0
21/04:00am 15.7 13.6 14.7 94 0.6 NE 19 24 10 13 998.0 998.0 6.4
21/03:30am 15.7 13.0 14.6 93 0.6 NE 22 28 12 15 998.0 998.0 5.4
21/03:00am 15.8 12.0 14.7 93 0.6 NE 28 33 15 18 997.8 997.8 4.6
21/02:30am 15.9 11.3 14.6 92 0.7 NE 32 37 17 20 997.8 997.8 4.2
21/02:00am 16.3 12.5 14.8 91 0.9 NNE 28 39 15 21 998.3 998.3 3.6
21/01:30am 16.1 9.3 14.8 92 0.7 NNE 44 56 24 30 997.9 997.9 2.8
21/01:00am 15.9 7.9 14.6 92 0.7 NE 50 65 27 35 998.1 998.1 2.6
21/12:56am 15.9 8.6 14.4 91 0.9 NE 46 65 25 35 998.3 998.3 2.6
21/12:30am 16.3 11.2 14.8 91 0.9 NNE 35 52 19 28 999.7 999.7 2.6
21/12:08am 16.2 10.4 14.9 92 0.7 NNE 39 59 21 32 1000.6 1000.6 2.6
21/12:00am 16.2 10.1 15.1 93 0.6 NNE 41 54 22 29 1000.6 1000.6 2.6
 
Date/Time
EDT
Temp
°C
App
Temp
°C
Dew
Point
°C
Rel
Hum
%
Delta-T
°C
Wind Press
QNH
hPa
Press
MSL
hPa
Rain since
9am
mm
Dir  Spd
km/h
Gust
km/h
Spd
kts
Gust
kts
20/11:30pm 15.7 10.2 14.6 93 0.6 NE 37 46 20 25 1001.1 1001.1 2.4
20/11:00pm 15.6 8.9 14.5 93 0.6 NE 43 50 23 27 1001.5 1001.5 2.0
20/10:30pm 15.8 11.2 14.5 92 0.7 NE 32 41 17 22 1001.9 1001.9 1.8
20/10:00pm 15.9 12.1 14.6 92 0.7 NE 28 33 15 18 1002.8 1002.8 1.2
20/09:30pm 16.0 13.7 14.7 92 0.7 NE 20 24 11 13 1003.6 1003.6 0.8
20/09:00pm 15.7 11.4 14.4 92 0.7 NE 30 39 16 21 1003.6 1003.6 0.6
20/08:30pm 15.6 8.6 14.3 92 0.7 NE 44 52 24 28 1003.5 1003.5 0.6
20/08:00pm 15.5 9.8 14.2 92 0.7 ENE 37 46 20 25 1003.8 1003.8 0.6
20/07:30pm 15.6 10.3 14.3 92 0.7 NE 35 43 19 23 1004.0 1004.0 0.6
20/07:00pm 15.6 9.2 14.3 92 0.7 NE 41 48 22 26 1004.1 1004.1 0.6
20/06:30pm 15.6 10.3 14.1 91 0.8 NE 35 44 19 24 1004.4 1004.4 0.6
20/06:00pm 15.9 10.6 14.3 90 0.9 NE 35 43 19 23 1004.8 1004.8 0.6
20/05:30pm 16.0 11.1 14.4 90 0.9 NE 33 41 18 22 1005.0 1005.0 0.4
20/05:00pm 16.1 12.1 14.1 88 1.1 NE 28 35 15 19 1005.5 1005.5 0.4
20/04:30pm 16.3 12.3 14.1 87 1.2 NE 28 35 15 19 1005.5 1005.5 0.0
20/04:00pm 16.8 9.8 13.7 82 1.8 NE 43 50 23 27 1005.1 1005.1 0.0
20/03:30pm 16.8 9.6 13.7 82 1.8 NE 44 59 24 32 1005.6 1005.6 0.0
20/03:00pm 16.6 7.4 13.5 82 1.7 NE 54 69 29 37 1005.2 1005.2 0.0
20/02:30pm 17.3 10.1 13.8 80 2.0 NE 44 56 24 30 1005.9 1005.9 0.0
20/02:00pm 16.8 9.8 13.7 82 1.8 NE 43 52 23 28 1006.4 1006.4 0.0
20/01:30pm 16.3 9.3 13.6 84 1.5 NE 43 56 23 30 1006.6 1006.6 0.0
20/01:00pm 16.1 11.9 13.6 85 1.4 NE 28 39 15 21 1007.2 1007.2 0.0
20/12:30pm 16.8 10.3 12.9 78 2.2 NE 39 48 21 26 1007.2 1007.2 0.0
20/12:00pm 17.1 9.9 13.0 77 2.3 NE 43 52 23 28 1007.5 1007.5 0.0
20/11:30am 17.8 10.6 13.1 74 2.6 NE 43 56 23 30 1007.6 1007.6 0.0
20/11:00am 18.1 11.2 12.8 71 3.0 NE 41 52 22 28 1007.9 1007.9 0.0
20/10:30am 18.2 11.6 12.6 70 3.1 NE 39 50 21 27 1008.4 1008.4 0.0
20/10:00am 17.9 11.7 12.6 71 3.0 NE 37 48 20 26 1009.1 1009.1 0.0
20/09:30am 19.1 12.9 12.8 67 3.5 NE 37 44 20 24 1008.8 1008.8 0.0
20/09:00am 17.4 11.8 11.4 68 3.3 NE 32 43 17 23 1009.5 1009.5 0.0
20/08:30am 17.3 11.6 11.1 67 3.3 NE 32 39 17 21 1009.8 1009.8 0.0
20/08:00am 17.1 13.3 11.2 68 3.2 NE 22 32 12 17 1010.2 1010.2 0.0
20/07:30am 16.0 12.3 10.3 69 3.0 NNE 20 33 11 18 1010.4 1010.4 0.0
20/07:00am 15.5 9.8 9.8 69 3.0 NE 30 37 16 20 1010.7 1010.7 0.0
20/06:30am 14.6 11.0 8.5 67 3.1 NNE 17 20 9 11 1011.1 1011.1 0.0
20/06:00am 14.0 11.2 8.4 69 2.8 NNE 13 17 7 9 1011.6 1011.6 0.0
20/05:30am 14.1 10.6 8.7 70 2.7 NNE 17 20 9 11 1011.6 1011.6 0.0
20/05:00am 14.0 10.2 9.2 73 2.4 NNE 19 22 10 12 1011.8 1011.8 0.0
20/04:30am 14.3 9.9 9.1 71 2.6 NNE 22 28 12 15 1012.2 1012.2 0.0
20/04:00am 14.4 10.3 8.8 69 2.8 NE 20 26 11 14 1012.4 1012.4 0.0
20/03:30am 14.1 10.7 9.3 73 2.5 NNE 17 22 9 12 1013.1 1013.1 0.0
20/03:00am 14.1 9.1 9.5 74 2.4 NNE 26 35 14 19 1012.8 1012.8 0.0
20/02:30am 13.8 10.4 9.0 73 2.4 NNE 17 24 9 13 1013.4 1013.4 0.0
20/02:00am 14.0 10.0 9.0 72 2.5 NNE 20 30 11 16 1013.8 1013.8 0.0
20/01:30am 14.1 9.8 9.5 74 2.4 NNE 22 32 12 17 1014.3 1014.3 0.0
20/01:00am 14.1 9.9 9.7 75 2.3 NE 22 35 12 19 1014.5 1014.5 0.0
20/12:30am 14.3 9.4 10.1 76 2.2 NE 26 39 14 21 1015.0 1015.0 0.0
20/12:00am 14.4 9.6 10.2 76 2.2 NE 26 35 14 19 1015.6 1015.6 0.0
 
Date/Time
EDT
Temp
°C
App
Temp
°C
Dew
Point
°C
Rel
Hum
%
Delta-T
°C
Wind Press
QNH
hPa
Press
MSL
hPa
Rain since
9am
mm
Dir  Spd
km/h
Gust
km/h
Spd
kts
Gust
kts
19/11:30pm 14.7 8.5 10.1 74 2.4 NE 33 46 18 25 1015.7 1015.7 0.0
19/11:00pm 14.8 7.8 10.0 73 2.5 NE 37 46 20 25 1015.6 1015.6 0.0
19/10:30pm 14.8 7.4 9.8 72 2.6 NE 39 50 21 27 1015.9 1015.9 0.0
19/10:00pm 14.9 7.4 9.3 69 2.9 NE 39 50 21 27 1016.1 1016.1 0.0
19/09:30pm 15.0 6.8 9.6 70 2.8 NE 43 57 23 31 1015.8 1015.8 0.0
19/09:00pm 15.1 5.9 9.5 69 2.9 NE 48 59 26 32 1015.6 1015.6 0.0
19/08:30pm 15.2 7.0 9.8 70 2.8 NE 43 54 23 29 1015.7 1015.7 0.0
19/08:00pm 15.4 6.5 10.6 73 2.5 ENE 48 61 26 33 1015.7 1015.7 0.0
19/07:30pm 16.0 7.6 11.2 73 2.6 NE 46 59 25 32 1015.6 1015.6 0.0
19/07:00pm 16.2 6.6 10.9 71 2.8 NE 52 63 28 34 1015.4 1015.4 0.0
19/06:30pm 16.2 6.2 10.7 70 2.9 NE 54 67 29 36 1015.2 1015.2 0.0
19/06:13pm 16.2 6.9 10.7 70 2.9 NE 50 70 27 38 1015.4 1015.4 0.0
19/06:00pm 16.5 6.5 10.6 68 3.1 NE 54 67 29 36 1015.5 1015.5 0.0
19/05:30pm 17.6 7.7 11.2 66 3.5 NE 54 67 29 36 1015.5 1015.5 0.0
19/05:00pm 16.8 6.5 10.9 68 3.2 NE 56 69 30 37 1015.8 1015.8 0.0
19/04:30pm 17.9 8.0 11.2 65 3.6 NE 54 67 29 36 1015.9 1015.9 0.0
19/04:00pm 17.9 8.5 11.5 66 3.5 NE 52 63 28 34 1016.3 1016.3 0.0
19/03:30pm 18.4 8.5 11.2 63 3.9 NE 54 65 29 35 1016.7 1016.7 0.0
19/03:00pm 18.8 8.8 10.9 60 4.3 NE 54 67 29 36 1017.1 1017.1 0.0
19/02:30pm 18.8 9.5 10.6 59 4.4 NE 50 61 27 33 1017.6 1017.6 0.0
19/02:00pm 19.1 10.3 10.9 59 4.4 NE 48 59 26 32 1017.9 1017.9 0.0
19/01:30pm 19.4 10.7 11.2 59 4.5 NE 48 63 26 34 1018.4 1018.4 0.0
19/01:00pm 18.9 9.7 11.0 60 4.3 NE 50 65 27 35 1018.7 1018.7 0.0
19/12:30pm 18.9 11.0 11.5 62 4.1 NE 44 57 24 31 1019.2 1019.2 0.0
19/12:00pm 18.7 10.4 11.3 62 4.0 NE 46 61 25 33 1019.5 1019.5 0.0
19/11:30am 18.0 10.0 11.1 64 3.7 NE 44 56 24 30 1019.6 1019.6 0.0
19/11:00am 18.1 10.2 11.4 65 3.6 NE 44 56 24 30 1020.2 1020.2 0.0
19/10:30am 17.4 10.1 11.7 69 3.1 NE 41 52 22 28 1020.6 1020.6 0.0
19/10:00am 16.6 9.5 10.9 69 3.0 NE 39 46 21 25 1020.8 1020.8 0.0
19/09:30am 17.1 9.1 10.5 65 3.5 NE 43 54 23 29 1021.0 1021.0 0.0
19/09:00am 17.0 10.6 10.6 66 3.4 NE 35 44 19 24 1021.3 1021.3 0.0
19/08:30am 16.6 10.6 10.9 69 3.1 NE 33 39 18 21 1021.4 1021.4 0.0
19/08:00am 16.4 11.8 11.1 71 2.8 NE 26 33 14 18 1021.6 1021.6 0.0
19/07:30am 15.6 11.0 11.0 74 2.5 NE 26 32 14 17 1021.6 1021.6 0.0
19/07:00am 15.1 12.3 11.5 79 1.9 NE 17 20 9 11 1021.5 1021.5 0.0
19/06:30am 14.2 12.2 11.5 84 1.4 NE 13 17 7 9 1021.3 1021.3 0.0
19/06:00am 13.3 10.4 11.0 86 1.2 NE 17 20 9 11 1021.4 1021.4 0.0
19/05:30am 13.5 10.7 11.4 87 1.1 NE 17 22 9 12 1021.5 1021.5 0.0
19/05:00am 13.4 10.2 11.3 87 1.1 NE 19 20 10 11 1021.4 1021.4 0.0
19/04:30am 13.4 11.7 11.3 87 1.1 NE 11 17 6 9 1021.3 1021.3 0.0
19/04:00am 13.8 11.1 11.7 87 1.1 NE 17 22 9 12 1021.4 1021.4 0.0
19/03:30am 13.9 10.2 11.6 86 1.2 NE 22 32 12 17 1021.5 1021.5 0.0
19/03:00am 14.0 8.5 11.7 86 1.2 NE 32 41 17 22 1021.5 1021.5 0.0
19/02:30am 14.0 8.2 11.5 85 1.3 NE 33 43 18 23 1021.6 1021.6 0.0
19/02:00am 14.1 7.5 11.4 84 1.4 NE 37 46 20 25 1021.7 1021.7 0.0
19/01:30am 14.1 8.5 11.4 84 1.4 NE 32 43 17 23 1022.1 1022.1 0.0
19/01:00am 14.1 8.5 11.4 84 1.4 NE 32 39 17 21 1022.5 1022.5 0.0
19/12:30am 14.0 8.7 11.2 83 1.5 NE 30 39 16 21 1023.0 1023.0 0.0
19/12:00am 13.9 8.6 11.2 84 1.4 NE 30 39 16 21 1023.4 1023.4 0.0
 
Date/Time
EDT
Temp
°C
App
Temp
°C
Dew
Point
°C
Rel
Hum
%
Delta-T
°C
Wind Press
QNH
hPa
Press
MSL
hPa
Rain since
9am
mm
Dir  Spd
km/h
Gust
km/h
Spd
kts
Gust
kts
18/11:30pm 13.8 8.8 11.0 83 1.5 NE 28 39 15 21 1023.4 1023.4 0.0
18/11:00pm 14.0 9.0 10.8 81 1.7 NE 28 37 15 20 1023.7 1023.7 0.0
18/10:30pm 14.2 8.2 10.8 80 1.8 NE 33 39 18 21 1023.6 1023.6 0.0
18/10:00pm 14.1 8.6 10.5 79 1.9 NE 30 37 16 20 1023.6 1023.6 0.0
18/09:30pm 13.9 9.0 10.1 78 2.0 NE 26 33 14 18 1023.7 1023.7 0.0
18/09:00pm 13.8 9.3 10.0 78 2.0 NE 24 33 13 18 1023.5 1023.5 0.0
18/08:30pm 14.0 7.3 9.6 75 2.3 NE 35 44 19 24 1023.3 1023.3 0.0
18/08:00pm 14.0 7.6 9.4 74 2.3 NE 33 44 18 24 1023.1 1023.1 0.0
18/07:30pm 14.5 7.8 9.5 72 2.6 NE 35 43 19 23 1023.3 1023.3 0.0
18/07:00pm 14.7 7.2 9.3 70 2.8 ENE 39 46 21 25 1023.0 1023.0 0.0
18/06:30pm 15.2 8.0 9.3 68 3.0 NE 37 44 20 24 1023.1 1023.1 0.0
18/06:00pm 15.4 7.8 9.1 66 3.2 ENE 39 46 21 25 1022.9 1022.9 0.0
18/05:30pm 15.6 7.9 8.6 63 3.6 NE 39 48 21 26 1022.9 1022.9 0.0
18/05:00pm 16.0 8.6 8.2 60 3.9 NE 37 44 20 24 1023.2 1023.2 0.0

Other Formats:

Comma delimited format used in spreadsheet applications
http://www.bom.gov.au/fwo/IDT60801/IDT60801.94951.axf

JavaScript Object Notation format (JSON) in row-major order
http://www.bom.gov.au/fwo/IDT60801/IDT60801.94951.json